sensor_id;sensor_type;location;lat;lon;timestamp;pressure;altitude;pressure_sealevel;temperature;humidity
61384;BME280;63511;49.346;8.798;2023-01-19T00:00:32;99217.41;;;-0.65;76.84
61384;BME280;63511;49.346;8.798;2023-01-19T00:02:58;99223.38;;;-0.55;76.00
61384;BME280;63511;49.346;8.798;2023-01-19T00:05:25;99220.94;;;-0.63;76.16
61384;BME280;63511;49.346;8.798;2023-01-19T00:07:51;99235.22;;;-0.69;77.02
61384;BME280;63511;49.346;8.798;2023-01-19T00:10:19;99232.50;;;-0.90;77.81
61384;BME280;63511;49.346;8.798;2023-01-19T00:12:46;99235.59;;;-1.01;77.33
61384;BME280;63511;49.346;8.798;2023-01-19T00:15:12;99233.22;;;-0.91;77.33
61384;BME280;63511;49.346;8.798;2023-01-19T00:17:39;99233.94;;;-0.74;78.42
61384;BME280;63511;49.346;8.798;2023-01-19T00:20:07;99237.88;;;-0.85;77.44
61384;BME280;63511;49.346;8.798;2023-01-19T00:22:34;99233.91;;;-0.66;78.60
61384;BME280;63511;49.346;8.798;2023-01-19T00:25:01;99237.16;;;-0.39;77.00
61384;BME280;63511;49.346;8.798;2023-01-19T00:27:29;99233.78;;;-0.31;76.88
61384;BME280;63511;49.346;8.798;2023-01-19T00:29:59;99235.19;;;-0.52;78.56
61384;BME280;63511;49.346;8.798;2023-01-19T00:32:25;99249.41;;;-0.41;77.43
61384;BME280;63511;49.346;8.798;2023-01-19T00:34:52;99246.75;;;-0.34;77.20
61384;BME280;63511;49.346;8.798;2023-01-19T00:37:18;99235.31;;;-0.51;78.27
61384;BME280;63511;49.346;8.798;2023-01-19T00:39:45;99236.16;;;-0.41;77.83
61384;BME280;63511;49.346;8.798;2023-01-19T00:42:12;99239.00;;;-0.64;79.29
61384;BME280;63511;49.346;8.798;2023-01-19T00:44:58;99239.41;;;-0.60;79.46
61384;BME280;63511;49.346;8.798;2023-01-19T00:47:24;99237.47;;;-0.45;79.89
61384;BME280;63511;49.346;8.798;2023-01-19T00:49:51;99245.19;;;-0.06;77.69
61384;BME280;63511;49.346;8.798;2023-01-19T00:52:17;99242.81;;;-0.05;76.91
61384;BME280;63511;49.346;8.798;2023-01-19T00:54:44;99245.25;;;-0.23;79.37
61384;BME280;63511;49.346;8.798;2023-01-19T00:57:10;99246.97;;;-0.50;79.30
61384;BME280;63511;49.346;8.798;2023-01-19T00:59:37;99239.34;;;-0.07;79.19
61384;BME280;63511;49.346;8.798;2023-01-19T01:02:04;99253.81;;;-0.11;79.14
61384;BME280;63511;49.346;8.798;2023-01-19T01:04:31;99248.25;;;-0.09;79.84
61384;BME280;63511;49.346;8.798;2023-01-19T01:06:58;99237.44;;;-0.01;79.63
61384;BME280;63511;49.346;8.798;2023-01-19T01:09:25;99246.81;;;0.12;79.03
61384;BME280;63511;49.346;8.798;2023-01-19T01:11:51;99243.56;;;0.22;78.33
61384;BME280;63511;49.346;8.798;2023-01-19T01:14:18;99251.06;;;0.13;77.63
61384;BME280;63511;49.346;8.798;2023-01-19T01:16:45;99261.59;;;-0.17;78.73
61384;BME280;63511;49.346;8.798;2023-01-19T01:22:34;99263.47;;;0.13;79.05
61384;BME280;63511;49.346;8.798;2023-01-19T01:25:03;99260.91;;;0.03;79.74
61384;BME280;63511;49.346;8.798;2023-01-19T01:27:30;99267.22;;;0.18;78.95
61384;BME280;63511;49.346;8.798;2023-01-19T01:29:57;99270.75;;;0.20;78.93
61384;BME280;63511;49.346;8.798;2023-01-19T01:32:23;99266.53;;;0.11;80.12
61384;BME280;63511;49.346;8.798;2023-01-19T01:34:50;99278.50;;;0.15;79.72
61384;BME280;63511;49.346;8.798;2023-01-19T01:37:16;99280.19;;;0.24;79.29
61384;BME280;63511;49.346;8.798;2023-01-19T01:39:44;99271.09;;;0.33;79.37
61384;BME280;63511;49.346;8.798;2023-01-19T01:42:15;99271.22;;;0.35;79.17
61384;BME280;63511;49.346;8.798;2023-01-19T01:44:44;99262.75;;;0.33;79.52
61384;BME280;63511;49.346;8.798;2023-01-19T01:47:17;99262.91;;;0.53;78.33
61384;BME280;63511;49.346;8.798;2023-01-19T01:49:48;99270.94;;;-0.23;79.87
61384;BME280;63511;49.346;8.798;2023-01-19T01:52:15;99263.56;;;0.42;78.44
61384;BME280;63511;49.346;8.798;2023-01-19T01:54:44;99274.69;;;0.18;79.08
61384;BME280;63511;49.346;8.798;2023-01-19T01:57:11;99268.22;;;0.48;77.94
61384;BME280;63511;49.346;8.798;2023-01-19T01:59:41;99270.84;;;0.22;79.20
61384;BME280;63511;49.346;8.798;2023-01-19T02:02:10;99256.75;;;0.12;81.06
61384;BME280;63511;49.346;8.798;2023-01-19T02:04:58;99268.28;;;0.12;80.70
61384;BME280;63511;49.346;8.798;2023-01-19T02:07:32;99268.84;;;0.18;80.81
61384;BME280;63511;49.346;8.798;2023-01-19T02:10:21;99266.06;;;0.42;80.84
61384;BME280;63511;49.346;8.798;2023-01-19T02:13:05;99265.94;;;0.40;81.13
61384;BME280;63511;49.346;8.798;2023-01-19T02:15:47;99261.59;;;0.57;80.94
61384;BME280;63511;49.346;8.798;2023-01-19T02:18:14;99260.72;;;1.04;78.08
61384;BME280;63511;49.346;8.798;2023-01-19T02:20:45;99263.88;;;1.11;77.49
61384;BME280;63511;49.346;8.798;2023-01-19T02:23:19;99268.66;;;1.00;77.68
61384;BME280;63511;49.346;8.798;2023-01-19T02:25:51;99260.00;;;1.05;78.94
61384;BME280;63511;49.346;8.798;2023-01-19T02:28:18;99252.59;;;1.15;77.03
61384;BME280;63511;49.346;8.798;2023-01-19T02:30:45;99258.22;;;0.75;78.46
61384;BME280;63511;49.346;8.798;2023-01-19T02:33:11;99258.88;;;1.01;78.41
61384;BME280;63511;49.346;8.798;2023-01-19T02:35:39;99255.41;;;0.80;77.77
61384;BME280;63511;49.346;8.798;2023-01-19T02:38:07;99261.22;;;1.00;77.97
61384;BME280;63511;49.346;8.798;2023-01-19T02:40:35;99255.84;;;1.14;77.59
61384;BME280;63511;49.346;8.798;2023-01-19T02:43:06;99249.53;;;1.27;76.26
61384;BME280;63511;49.346;8.798;2023-01-19T02:45:34;99258.03;;;1.11;76.48
61384;BME280;63511;49.346;8.798;2023-01-19T02:48:02;99250.03;;;1.23;76.07
61384;BME280;63511;49.346;8.798;2023-01-19T02:50:35;99254.13;;;1.23;76.34
61384;BME280;63511;49.346;8.798;2023-01-19T02:53:13;99262.31;;;1.22;76.54
61384;BME280;63511;49.346;8.798;2023-01-19T02:55:48;99262.09;;;1.00;77.83
61384;BME280;63511;49.346;8.798;2023-01-19T02:58:22;99254.78;;;0.83;78.30
61384;BME280;63511;49.346;8.798;2023-01-19T03:01:00;99259.47;;;0.99;78.48
61384;BME280;63511;49.346;8.798;2023-01-19T03:03:38;99255.59;;;0.92;79.43
61384;BME280;63511;49.346;8.798;2023-01-19T03:06:16;99252.09;;;0.90;78.91
61384;BME280;63511;49.346;8.798;2023-01-19T03:08:52;99253.56;;;1.07;78.35
61384;BME280;63511;49.346;8.798;2023-01-19T03:11:22;99252.34;;;1.12;78.99
61384;BME280;63511;49.346;8.798;2023-01-19T03:13:53;99250.72;;;1.12;78.91
61384;BME280;63511;49.346;8.798;2023-01-19T03:16:25;99244.34;;;1.06;78.75
61384;BME280;63511;49.346;8.798;2023-01-19T03:18:57;99252.72;;;0.88;79.18
61384;BME280;63511;49.346;8.798;2023-01-19T03:21:27;99253.97;;;1.50;77.40
61384;BME280;63511;49.346;8.798;2023-01-19T03:23:57;99248.88;;;1.20;78.93
61384;BME280;63511;49.346;8.798;2023-01-19T03:26:29;99245.75;;;1.12;78.77
61384;BME280;63511;49.346;8.798;2023-01-19T03:29:01;99247.25;;;1.39;78.25
61384;BME280;63511;49.346;8.798;2023-01-19T03:31:30;99249.44;;;1.36;78.37
61384;BME280;63511;49.346;8.798;2023-01-19T03:34:00;99249.94;;;1.32;78.24
61384;BME280;63511;49.346;8.798;2023-01-19T03:36:31;99253.44;;;1.34;78.65
61384;BME280;63511;49.346;8.798;2023-01-19T03:39:01;99256.91;;;1.36;78.80
61384;BME280;63511;49.346;8.798;2023-01-19T03:41:30;99253.38;;;1.63;77.12
61384;BME280;63511;49.346;8.798;2023-01-19T03:44:00;99254.13;;;1.62;77.07
61384;BME280;63511;49.346;8.798;2023-01-19T03:46:27;99255.81;;;1.92;76.04
61384;BME280;63511;49.346;8.798;2023-01-19T03:48:55;99267.13;;;1.78;76.44
61384;BME280;63511;49.346;8.798;2023-01-19T03:51:22;99274.47;;;1.09;77.98
61384;BME280;63511;49.346;8.798;2023-01-19T03:53:49;99275.66;;;1.61;77.43
61384;BME280;63511;49.346;8.798;2023-01-19T03:56:17;99271.69;;;1.63;78.12
61384;BME280;63511;49.346;8.798;2023-01-19T03:58:45;99276.00;;;1.95;76.25
61384;BME280;63511;49.346;8.798;2023-01-19T04:01:13;99282.06;;;1.88;76.21
61384;BME280;63511;49.346;8.798;2023-01-19T04:03:40;99273.81;;;1.40;78.56
61384;BME280;63511;49.346;8.798;2023-01-19T04:06:07;99276.94;;;1.09;79.17
61384;BME280;63511;49.346;8.798;2023-01-19T04:08:34;99277.50;;;1.54;79.07
61384;BME280;63511;49.346;8.798;2023-01-19T04:11:00;99277.56;;;1.45;79.38
61384;BME280;63511;49.346;8.798;2023-01-19T04:13:27;99271.16;;;1.57;79.38
61384;BME280;63511;49.346;8.798;2023-01-19T04:15:54;99274.41;;;1.66;79.67
61384;BME280;63511;49.346;8.798;2023-01-19T04:18:25;99283.69;;;1.98;77.52
61384;BME280;63511;49.346;8.798;2023-01-19T04:20:52;99285.84;;;2.13;76.63
61384;BME280;63511;49.346;8.798;2023-01-19T04:23:19;99291.69;;;2.24;75.37
61384;BME280;63511;49.346;8.798;2023-01-19T04:25:45;99288.22;;;2.12;76.29
61384;BME280;63511;49.346;8.798;2023-01-19T04:28:12;99273.28;;;2.22;75.36
61384;BME280;63511;49.346;8.798;2023-01-19T04:30:38;99281.38;;;2.20;74.99
61384;BME280;63511;49.346;8.798;2023-01-19T04:33:05;99276.66;;;2.23;75.06
61384;BME280;63511;49.346;8.798;2023-01-19T04:35:33;99279.00;;;2.21;75.99
61384;BME280;63511;49.346;8.798;2023-01-19T04:37:59;99275.88;;;2.24;75.86
61384;BME280;63511;49.346;8.798;2023-01-19T04:40:26;99273.66;;;2.27;75.72
61384;BME280;63511;49.346;8.798;2023-01-19T04:42:52;99280.25;;;2.16;76.96
61384;BME280;63511;49.346;8.798;2023-01-19T04:45:19;99278.66;;;2.27;76.97
61384;BME280;63511;49.346;8.798;2023-01-19T04:47:46;99281.69;;;1.94;77.49
61384;BME280;63511;49.346;8.798;2023-01-19T04:50:12;99281.63;;;2.23;77.49
61384;BME280;63511;49.346;8.798;2023-01-19T04:52:40;99275.38;;;2.07;78.03
61384;BME280;63511;49.346;8.798;2023-01-19T04:55:08;99292.06;;;2.19;77.88
61384;BME280;63511;49.346;8.798;2023-01-19T04:57:34;99294.69;;;2.30;77.87
61384;BME280;63511;49.346;8.798;2023-01-19T05:00:01;99298.41;;;2.15;78.28
61384;BME280;63511;49.346;8.798;2023-01-19T05:02:28;99283.47;;;1.95;79.19
61384;BME280;63511;49.346;8.798;2023-01-19T05:04:54;99291.41;;;1.91;79.99
61384;BME280;63511;49.346;8.798;2023-01-19T05:07:21;99289.94;;;2.13;78.86
61384;BME280;63511;49.346;8.798;2023-01-19T05:09:49;99303.56;;;2.27;78.94
61384;BME280;63511;49.346;8.798;2023-01-19T05:12:15;99294.16;;;2.04;79.56
61384;BME280;63511;49.346;8.798;2023-01-19T05:14:42;99301.44;;;2.31;78.55
61384;BME280;63511;49.346;8.798;2023-01-19T05:17:09;99299.69;;;2.40;78.28
61384;BME280;63511;49.346;8.798;2023-01-19T05:19:35;99300.69;;;2.63;76.90
61384;BME280;63511;49.346;8.798;2023-01-19T05:22:02;99313.88;;;2.72;76.41
61384;BME280;63511;49.346;8.798;2023-01-19T05:24:30;99292.69;;;2.77;76.49
61384;BME280;63511;49.346;8.798;2023-01-19T05:26:58;99307.66;;;2.36;77.72
61384;BME280;63511;49.346;8.798;2023-01-19T05:29:25;99303.66;;;2.28;78.51
61384;BME280;63511;49.346;8.798;2023-01-19T05:31:51;99308.91;;;2.62;77.47
61384;BME280;63511;49.346;8.798;2023-01-19T05:34:18;99303.19;;;2.22;78.59
61384;BME280;63511;49.346;8.798;2023-01-19T05:36:44;99324.22;;;2.26;79.86
61384;BME280;63511;49.346;8.798;2023-01-19T05:39:11;99321.72;;;2.26;79.68
61384;BME280;63511;49.346;8.798;2023-01-19T05:41:38;99319.38;;;2.37;79.38
61384;BME280;63511;49.346;8.798;2023-01-19T05:44:08;99313.28;;;2.64;78.04
61384;BME280;63511;49.346;8.798;2023-01-19T05:46:35;99317.13;;;2.71;77.70
61384;BME280;63511;49.346;8.798;2023-01-19T05:49:01;99314.53;;;2.79;76.96
61384;BME280;63511;49.346;8.798;2023-01-19T05:51:29;99315.13;;;2.56;77.79
61384;BME280;63511;49.346;8.798;2023-01-19T05:53:59;99311.16;;;2.59;78.10
61384;BME280;63511;49.346;8.798;2023-01-19T05:56:26;99314.75;;;2.22;80.03
61384;BME280;63511;49.346;8.798;2023-01-19T05:58:52;99317.84;;;2.29;80.46
61384;BME280;63511;49.346;8.798;2023-01-19T06:01:20;99312.41;;;2.64;79.58
61384;BME280;63511;49.346;8.798;2023-01-19T06:03:47;99312.50;;;2.55;79.67
61384;BME280;63511;49.346;8.798;2023-01-19T06:06:14;99312.88;;;2.49;79.44
61384;BME280;63511;49.346;8.798;2023-01-19T06:08:41;99308.16;;;2.73;77.92
61384;BME280;63511;49.346;8.798;2023-01-19T06:11:09;99316.00;;;2.47;80.13
61384;BME280;63511;49.346;8.798;2023-01-19T06:13:35;99304.78;;;2.82;78.06
61384;BME280;63511;49.346;8.798;2023-01-19T06:16:04;99314.38;;;2.88;77.76
61384;BME280;63511;49.346;8.798;2023-01-19T06:18:33;99324.00;;;2.53;79.53
61384;BME280;63511;49.346;8.798;2023-01-19T06:21:02;99336.69;;;2.66;80.04
61384;BME280;63511;49.346;8.798;2023-01-19T06:23:29;99328.84;;;2.82;78.95
61384;BME280;63511;49.346;8.798;2023-01-19T06:25:56;99324.09;;;2.95;78.50
61384;BME280;63511;49.346;8.798;2023-01-19T06:28:23;99329.97;;;3.37;77.50
61384;BME280;63511;49.346;8.798;2023-01-19T06:30:51;99323.00;;;3.33;76.30
61384;BME280;63511;49.346;8.798;2023-01-19T06:33:19;99319.22;;;2.96;78.85
61384;BME280;63511;49.346;8.798;2023-01-19T06:35:48;99324.09;;;3.05;79.03
61384;BME280;63511;49.346;8.798;2023-01-19T06:38:16;99336.94;;;2.89;80.21
61384;BME280;63511;49.346;8.798;2023-01-19T06:40:43;99341.78;;;2.88;79.24
61384;BME280;63511;49.346;8.798;2023-01-19T06:43:11;99340.41;;;2.81;80.35
61384;BME280;63511;49.346;8.798;2023-01-19T06:45:37;99337.41;;;2.95;79.25
61384;BME280;63511;49.346;8.798;2023-01-19T06:48:07;99336.13;;;3.31;78.17
61384;BME280;63511;49.346;8.798;2023-01-19T06:50:33;99338.69;;;3.42;77.36
61384;BME280;63511;49.346;8.798;2023-01-19T06:53:04;99333.69;;;3.42;77.44
61384;BME280;63511;49.346;8.798;2023-01-19T06:55:31;99348.31;;;3.38;77.90
61384;BME280;63511;49.346;8.798;2023-01-19T06:58:02;99347.97;;;3.23;77.96
61384;BME280;63511;49.346;8.798;2023-01-19T07:00:29;99350.28;;;3.00;78.83
61384;BME280;63511;49.346;8.798;2023-01-19T07:02:59;99363.22;;;3.06;79.01
61384;BME280;63511;49.346;8.798;2023-01-19T07:05:25;99361.88;;;2.99;79.21
61384;BME280;63511;49.346;8.798;2023-01-19T07:07:53;99366.19;;;3.12;78.66
61384;BME280;63511;49.346;8.798;2023-01-19T07:10:22;99362.28;;;3.46;77.21
61384;BME280;63511;49.346;8.798;2023-01-19T07:12:49;99367.09;;;3.03;79.66
61384;BME280;63511;49.346;8.798;2023-01-19T07:15:17;99372.72;;;3.00;79.09
61384;BME280;63511;49.346;8.798;2023-01-19T07:17:46;99364.59;;;2.92;78.37
61384;BME280;63511;49.346;8.798;2023-01-19T07:20:13;99363.44;;;3.19;78.28
61384;BME280;63511;49.346;8.798;2023-01-19T07:22:43;99365.09;;;2.88;77.85
61384;BME280;63511;49.346;8.798;2023-01-19T07:25:11;99361.13;;;3.11;77.07
61384;BME280;63511;49.346;8.798;2023-01-19T07:27:39;99359.22;;;3.18;77.14
61384;BME280;63511;49.346;8.798;2023-01-19T07:30:06;99358.34;;;3.18;76.77
61384;BME280;63511;49.346;8.798;2023-01-19T07:32:36;99359.34;;;3.20;77.00
61384;BME280;63511;49.346;8.798;2023-01-19T07:35:03;99364.34;;;2.99;77.22
61384;BME280;63511;49.346;8.798;2023-01-19T07:37:29;99353.47;;;3.19;77.06
61384;BME280;63511;49.346;8.798;2023-01-19T07:39:56;99358.19;;;3.16;76.48
61384;BME280;63511;49.346;8.798;2023-01-19T07:42:23;99371.28;;;3.34;77.10
61384;BME280;63511;49.346;8.798;2023-01-19T07:44:51;99379.06;;;2.96;77.32
61384;BME280;63511;49.346;8.798;2023-01-19T07:47:18;99380.44;;;3.03;77.05
61384;BME280;63511;49.346;8.798;2023-01-19T07:49:45;99375.81;;;2.97;77.31
61384;BME280;63511;49.346;8.798;2023-01-19T07:52:12;99377.00;;;3.33;76.79
61384;BME280;63511;49.346;8.798;2023-01-19T07:54:39;99381.28;;;3.24;76.76
61384;BME280;63511;49.346;8.798;2023-01-19T07:57:06;99382.81;;;2.81;77.40
61384;BME280;63511;49.346;8.798;2023-01-19T07:59:32;99392.53;;;2.98;77.01
61384;BME280;63511;49.346;8.798;2023-01-19T08:02:00;99390.25;;;3.12;77.36
61384;BME280;63511;49.346;8.798;2023-01-19T08:04:27;99396.03;;;3.11;77.55
61384;BME280;63511;49.346;8.798;2023-01-19T08:06:55;99396.34;;;3.35;76.14
61384;BME280;63511;49.346;8.798;2023-01-19T08:09:22;99392.38;;;3.07;76.91
61384;BME280;63511;49.346;8.798;2023-01-19T08:11:49;99390.97;;;3.41;75.89
61384;BME280;63511;49.346;8.798;2023-01-19T08:14:15;99384.50;;;3.23;76.55
61384;BME280;63511;49.346;8.798;2023-01-19T08:16:42;99386.16;;;3.12;76.10
61384;BME280;63511;49.346;8.798;2023-01-19T08:19:10;99388.25;;;3.28;76.28
61384;BME280;63511;49.346;8.798;2023-01-19T08:21:37;99402.22;;;3.36;76.88
61384;BME280;63511;49.346;8.798;2023-01-19T08:24:04;99403.34;;;3.29;77.14
61384;BME280;63511;49.346;8.798;2023-01-19T08:26:33;99404.09;;;3.18;76.26
61384;BME280;63511;49.346;8.798;2023-01-19T08:29:02;99404.06;;;3.38;76.51
61384;BME280;63511;49.346;8.798;2023-01-19T08:31:30;99402.13;;;3.04;78.04
61384;BME280;63511;49.346;8.798;2023-01-19T08:33:57;99379.94;;;2.97;77.73
61384;BME280;63511;49.346;8.798;2023-01-19T08:36:27;99395.13;;;3.20;77.67
61384;BME280;63511;49.346;8.798;2023-01-19T08:38:54;99412.34;;;3.07;78.01
61384;BME280;63511;49.346;8.798;2023-01-19T08:41:21;99405.31;;;3.43;77.31
61384;BME280;63511;49.346;8.798;2023-01-19T08:43:48;99407.09;;;3.14;76.79
61384;BME280;63511;49.346;8.798;2023-01-19T08:46:15;99404.34;;;3.11;77.63
61384;BME280;63511;49.346;8.798;2023-01-19T08:48:45;99404.72;;;3.26;76.90
61384;BME280;63511;49.346;8.798;2023-01-19T08:51:17;99406.25;;;3.04;77.39
61384;BME280;63511;49.346;8.798;2023-01-19T08:53:47;99412.97;;;3.15;77.43
61384;BME280;63511;49.346;8.798;2023-01-19T08:56:14;99411.22;;;3.04;77.25
61384;BME280;63511;49.346;8.798;2023-01-19T08:58:42;99420.81;;;3.19;77.23
61384;BME280;63511;49.346;8.798;2023-01-19T09:01:10;99417.56;;;3.30;76.69
61384;BME280;63511;49.346;8.798;2023-01-19T09:03:38;99416.22;;;3.14;77.34
61384;BME280;63511;49.346;8.798;2023-01-19T09:06:05;99417.69;;;3.22;77.28
61384;BME280;63511;49.346;8.798;2023-01-19T09:08:32;99412.81;;;3.33;76.62
61384;BME280;63511;49.346;8.798;2023-01-19T09:11:00;99412.56;;;3.40;77.17
61384;BME280;63511;49.346;8.798;2023-01-19T09:13:27;99413.47;;;3.11;77.16
61384;BME280;63511;49.346;8.798;2023-01-19T09:15:56;99405.59;;;3.36;76.23
61384;BME280;63511;49.346;8.798;2023-01-19T09:18:22;99413.22;;;3.18;76.50
61384;BME280;63511;49.346;8.798;2023-01-19T09:20:49;99397.50;;;3.19;76.38
61384;BME280;63511;49.346;8.798;2023-01-19T09:23:18;99410.16;;;3.42;76.16
61384;BME280;63511;49.346;8.798;2023-01-19T09:25:46;99413.53;;;3.53;75.63
61384;BME280;63511;49.346;8.798;2023-01-19T09:28:15;99405.47;;;3.35;75.80
61384;BME280;63511;49.346;8.798;2023-01-19T09:30:43;99399.75;;;3.26;76.67
61384;BME280;63511;49.346;8.798;2023-01-19T09:33:11;99405.72;;;3.18;77.31
61384;BME280;63511;49.346;8.798;2023-01-19T09:35:39;99387.72;;;3.42;76.42
61384;BME280;63511;49.346;8.798;2023-01-19T09:38:07;99399.81;;;3.37;76.45
61384;BME280;63511;49.346;8.798;2023-01-19T09:40:36;99410.16;;;3.42;76.08
61384;BME280;63511;49.346;8.798;2023-01-19T09:43:12;99402.97;;;3.25;76.57
61384;BME280;63511;49.346;8.798;2023-01-19T09:45:44;99400.19;;;3.42;76.81
61384;BME280;63511;49.346;8.798;2023-01-19T09:48:33;99401.47;;;3.27;76.53
61384;BME280;63511;49.346;8.798;2023-01-19T09:51:06;99411.81;;;3.52;76.16
61384;BME280;63511;49.346;8.798;2023-01-19T09:53:48;99412.28;;;3.48;75.45
61384;BME280;63511;49.346;8.798;2023-01-19T09:56:17;99417.03;;;3.45;75.96
61384;BME280;63511;49.346;8.798;2023-01-19T09:58:45;99410.38;;;3.65;75.88
61384;BME280;63511;49.346;8.798;2023-01-19T10:01:23;99408.59;;;3.74;75.79
61384;BME280;63511;49.346;8.798;2023-01-19T10:07:04;99416.88;;;3.63;75.40
61384;BME280;63511;49.346;8.798;2023-01-19T10:09:36;99399.84;;;3.79;74.86
61384;BME280;63511;49.346;8.798;2023-01-19T10:12:10;99414.88;;;3.59;75.05
61384;BME280;63511;49.346;8.798;2023-01-19T10:14:42;99408.13;;;3.68;75.06
61384;BME280;63511;49.346;8.798;2023-01-19T10:17:19;99418.09;;;3.68;74.85
61384;BME280;63511;49.346;8.798;2023-01-19T10:19:52;99414.44;;;4.17;73.54
61384;BME280;63511;49.346;8.798;2023-01-19T10:22:23;99417.81;;;4.17;73.46
61384;BME280;63511;49.346;8.798;2023-01-19T10:24:52;99414.78;;;3.90;73.91
61384;BME280;63511;49.346;8.798;2023-01-19T10:27:23;99424.34;;;3.63;74.60
61384;BME280;63511;49.346;8.798;2023-01-19T10:30:17;99401.81;;;3.83;74.58
61384;BME280;63511;49.346;8.798;2023-01-19T10:32:49;99405.53;;;3.67;75.05
61384;BME280;63511;49.346;8.798;2023-01-19T10:35:21;99402.06;;;4.18;74.33
61384;BME280;63511;49.346;8.798;2023-01-19T10:37:50;99421.69;;;3.82;74.32
61384;BME280;63511;49.346;8.798;2023-01-19T10:40:25;99414.56;;;3.87;74.52
61384;BME280;63511;49.346;8.798;2023-01-19T10:42:55;99399.44;;;3.85;74.74
61384;BME280;63511;49.346;8.798;2023-01-19T10:45:29;99407.72;;;4.06;74.56
61384;BME280;63511;49.346;8.798;2023-01-19T10:48:04;99406.41;;;3.89;74.44
61384;BME280;63511;49.346;8.798;2023-01-19T10:50:36;99427.72;;;4.06;75.07
61384;BME280;63511;49.346;8.798;2023-01-19T10:53:05;99417.53;;;3.93;74.85
61384;BME280;63511;49.346;8.798;2023-01-19T10:55:43;99416.44;;;4.11;74.58
61384;BME280;63511;49.346;8.798;2023-01-19T10:58:27;99429.03;;;4.66;72.88
61384;BME280;63511;49.346;8.798;2023-01-19T11:00:54;99427.78;;;4.17;73.16
61384;BME280;63511;49.346;8.798;2023-01-19T11:03:28;99417.22;;;4.53;73.12
61384;BME280;63511;49.346;8.798;2023-01-19T11:06:18;99420.72;;;4.34;73.93
61384;BME280;63511;49.346;8.798;2023-01-19T11:08:53;99432.13;;;5.07;72.23
61384;BME280;63511;49.346;8.798;2023-01-19T11:11:48;99420.06;;;4.58;73.01
61384;BME280;63511;49.346;8.798;2023-01-19T11:14:18;99421.19;;;4.40;72.95
61384;BME280;63511;49.346;8.798;2023-01-19T11:16:48;99433.09;;;4.76;72.43
61384;BME280;63511;49.346;8.798;2023-01-19T11:19:23;99411.75;;;4.25;73.36
61384;BME280;63511;49.346;8.798;2023-01-19T11:21:51;99417.00;;;4.50;73.95
61384;BME280;63511;49.346;8.798;2023-01-19T11:24:19;99424.78;;;4.65;73.02
61384;BME280;63511;49.346;8.798;2023-01-19T11:26:48;99429.59;;;4.52;73.58
61384;BME280;63511;49.346;8.798;2023-01-19T11:29:18;99412.38;;;4.66;72.94
61384;BME280;63511;49.346;8.798;2023-01-19T11:31:48;99431.69;;;4.79;74.17
61384;BME280;63511;49.346;8.798;2023-01-19T11:34:29;99426.69;;;4.57;73.95
61384;BME280;63511;49.346;8.798;2023-01-19T11:36:58;99418.56;;;4.38;73.76
61384;BME280;63511;49.346;8.798;2023-01-19T11:39:29;99401.69;;;4.36;73.80
61384;BME280;63511;49.346;8.798;2023-01-19T11:41:57;99419.09;;;4.56;73.88
61384;BME280;63511;49.346;8.798;2023-01-19T11:44:28;99401.19;;;4.18;73.98
61384;BME280;63511;49.346;8.798;2023-01-19T11:46:58;99415.34;;;4.51;74.01
61384;BME280;63511;49.346;8.798;2023-01-19T11:49:35;99416.81;;;4.37;74.30
61384;BME280;63511;49.346;8.798;2023-01-19T11:52:08;99405.59;;;4.10;73.94
61384;BME280;63511;49.346;8.798;2023-01-19T11:54:41;99405.59;;;4.10;74.61
61384;BME280;63511;49.346;8.798;2023-01-19T11:57:13;99405.53;;;4.20;74.59
61384;BME280;63511;49.346;8.798;2023-01-19T11:59:41;99404.91;;;4.45;73.13
61384;BME280;63511;49.346;8.798;2023-01-19T12:02:16;99392.84;;;4.72;73.79
61384;BME280;63511;49.346;8.798;2023-01-19T12:04:48;99400.00;;;4.46;73.60
61384;BME280;63511;49.346;8.798;2023-01-19T12:07:25;99400.00;;;4.46;73.30
61384;BME280;63511;49.346;8.798;2023-01-19T12:09:57;99383.59;;;4.38;74.01
61384;BME280;63511;49.346;8.798;2023-01-19T12:12:29;99378.72;;;4.73;72.55
61384;BME280;63511;49.346;8.798;2023-01-19T12:15:00;99402.00;;;4.84;72.83
61384;BME280;63511;49.346;8.798;2023-01-19T12:17:30;99395.00;;;4.68;72.80
61384;BME280;63511;49.346;8.798;2023-01-19T12:20:05;99389.25;;;4.47;73.91
61384;BME280;63511;49.346;8.798;2023-01-19T12:22:38;99377.56;;;4.58;72.52
61384;BME280;63511;49.346;8.798;2023-01-19T12:25:14;99393.34;;;4.90;72.27
61384;BME280;63511;49.346;8.798;2023-01-19T12:27:46;99379.94;;;4.56;72.89
61384;BME280;63511;49.346;8.798;2023-01-19T12:30:20;99379.81;;;4.43;72.51
61384;BME280;63511;49.346;8.798;2023-01-19T12:32:47;99363.81;;;4.75;72.53
61384;BME280;63511;49.346;8.798;2023-01-19T12:35:58;99387.59;;;4.91;72.34
61384;BME280;63511;49.346;8.798;2023-01-19T12:38:35;99373.66;;;4.61;72.08
61384;BME280;63511;49.346;8.798;2023-01-19T12:44:21;99382.09;;;4.74;72.58
61384;BME280;63511;49.346;8.798;2023-01-19T12:46:50;99389.09;;;4.89;71.84
61384;BME280;63511;49.346;8.798;2023-01-19T12:49:25;99377.66;;;4.48;72.96
61384;BME280;63511;49.346;8.798;2023-01-19T12:52:12;99369.94;;;4.45;73.04
61384;BME280;63511;49.346;8.798;2023-01-19T12:54:49;99374.25;;;4.69;73.16
61384;BME280;63511;49.346;8.798;2023-01-19T12:57:21;99361.34;;;4.53;72.80
61384;BME280;63511;49.346;8.798;2023-01-19T12:59:56;99364.88;;;4.66;72.99
61384;BME280;63511;49.346;8.798;2023-01-19T13:02:39;99358.19;;;4.89;72.10
61384;BME280;63511;49.346;8.798;2023-01-19T13:05:12;99376.28;;;4.96;71.32
61384;BME280;63511;49.346;8.798;2023-01-19T13:08:15;99366.72;;;5.14;71.01
61384;BME280;63511;49.346;8.798;2023-01-19T13:11:12;99367.50;;;5.25;71.48
61384;BME280;63511;49.346;8.798;2023-01-19T13:13:39;99374.97;;;4.90;70.04
61384;BME280;63511;49.346;8.798;2023-01-19T13:16:46;99377.41;;;4.78;72.53
61384;BME280;63511;49.346;8.798;2023-01-19T13:19:17;99375.50;;;4.86;71.99
61384;BME280;63511;49.346;8.798;2023-01-19T13:21:47;99370.38;;;4.84;72.77
61384;BME280;63511;49.346;8.798;2023-01-19T13:24:18;99372.84;;;4.72;71.52
61384;BME280;63511;49.346;8.798;2023-01-19T13:26:53;99382.59;;;4.91;71.22
61384;BME280;63511;49.346;8.798;2023-01-19T13:29:27;99383.16;;;4.77;72.57
61384;BME280;63511;49.346;8.798;2023-01-19T13:31:56;99378.09;;;4.87;72.23
61384;BME280;63511;49.346;8.798;2023-01-19T13:34:28;99378.53;;;4.93;71.11